DLH789 LEPA-EDDB
Flight info
| Callsign | DLH789 |
|---|---|
| Flight time | 2h 4m |
| Altitude | 38000 |
| Route | MEROS5A MEROS N853 LAPIT/N0483F400 N853 LUMAS DCT MAXIR DCT LUSOL DCT BODRU DCT OKTET DCT IRMAR DCT KINES DCT VANAS DCT ESOKO DCT GODRA/N0488F390 DCT LOKTA DCT TEDGO DCT TIKNI T279 TAMEB T278 KLF KLF1R |
| Aircraft | B789/H-SDE1E2E3FGHIJ2J3J4J5M1RWXY/LB1D1 |
Departure
| Time | 2026-05-05 17:43 |
|---|---|
| Airport | Palma de Mallorca Airport (LEPA) |
Arrival
| Time | 2026-05-05 19:47 |
|---|---|
| Airport | Berlin Brandenburg Airport (EDDB) |
| Time | Latitude | Longitude | Altitude | Speed | Heading |
|---|---|---|---|---|---|
| 2026-05-05 17:11 | 39.55093 | 2.73631 | 31 ft | 0 kts | 191° |
| 2026-05-05 17:33 | 39.55094 | 2.73632 | 31 ft | 2 kts | 191° |
| 2026-05-05 17:33 | 39.55110 | 2.73635 | 28 ft | 2 kts | 191° |
| 2026-05-05 17:33 | 39.55126 | 2.73639 | 30 ft | 2 kts | 188° |
| 2026-05-05 17:34 | 39.55141 | 2.73638 | 29 ft | 1 kts | 144° |
| 2026-05-05 17:34 | 39.55147 | 2.73627 | 27 ft | 1 kts | 97° |
| 2026-05-05 17:34 | 39.55145 | 2.73615 | 27 ft | 1 kts | 43° |
| 2026-05-05 17:34 | 39.55135 | 2.73605 | 27 ft | 3 kts | 36° |
| 2026-05-05 17:35 | 39.55129 | 2.73597 | 27 ft | 0 kts | 59° |
| 2026-05-05 17:37 | 39.55130 | 2.73599 | 27 ft | 1 kts | 59° |
| 2026-05-05 17:37 | 39.55139 | 2.73617 | 30 ft | 3 kts | 57° |
| 2026-05-05 17:37 | 39.55155 | 2.73650 | 30 ft | 7 kts | 57° |
| 2026-05-05 17:38 | 39.55172 | 2.73744 | 30 ft | 15 kts | 101° |
| 2026-05-05 17:38 | 39.55208 | 2.73823 | 29 ft | 3 kts | 2° |
| 2026-05-05 17:38 | 39.55227 | 2.73809 | 29 ft | 8 kts | 328° |
| 2026-05-05 17:38 | 39.55313 | 2.73741 | 28 ft | 20 kts | 329° |
| 2026-05-05 17:39 | 39.55463 | 2.73625 | 29 ft | 27 kts | 328° |
| 2026-05-05 17:39 | 39.55608 | 2.73510 | 29 ft | 20 kts | 342° |
| 2026-05-05 17:39 | 39.55685 | 2.73566 | 29 ft | 11 kts | 58° |
| 2026-05-05 17:39 | 39.55729 | 2.73659 | 27 ft | 13 kts | 58° |
| 2026-05-05 17:40 | 39.55761 | 2.73727 | 28 ft | 14 kts | 58° |
| 2026-05-05 17:40 | 39.55832 | 2.73875 | 27 ft | 15 kts | 57° |
| 2026-05-05 17:40 | 39.55873 | 2.73957 | 28 ft | 16 kts | 57° |
| 2026-05-05 17:40 | 39.55935 | 2.74083 | 24 ft | 17 kts | 58° |
| 2026-05-05 17:41 | 39.55992 | 2.74215 | 25 ft | 17 kts | 60° |
| 2026-05-05 17:41 | 39.56050 | 2.74317 | 24 ft | 9 kts | 23° |
| 2026-05-05 17:41 | 39.56089 | 2.74318 | 25 ft | 4 kts | 349° |
| 2026-05-05 17:41 | 39.56123 | 2.74303 | 24 ft | 7 kts | 336° |
| 2026-05-05 17:42 | 39.56194 | 2.74246 | 24 ft | 13 kts | 313° |
| 2026-05-05 17:42 | 39.56200 | 2.74199 | 25 ft | 1 kts | 240° |
| 2026-05-05 17:42 | 39.56172 | 2.74145 | 27 ft | 22 kts | 236° |
| 2026-05-05 17:42 | 39.55948 | 2.73675 | 26 ft | 99 kts | 238° |
| 2026-05-05 17:43 | 39.55461 | 2.72661 | 28 ft | 164 kts | 238° |
| 2026-05-05 17:43 | 39.54847 | 2.71277 | 468 ft | 183 kts | 240° |
| 2026-05-05 17:43 | 39.54348 | 2.69780 | 1469 ft | 180 kts | 249° |
| 2026-05-05 17:43 | 39.53846 | 2.68275 | 2194 ft | 182 kts | 236° |
| 2026-05-05 17:44 | 39.52916 | 2.67209 | 2896 ft | 178 kts | 223° |
| 2026-05-05 17:44 | 39.52126 | 2.65995 | 3590 ft | 181 kts | 237° |
| 2026-05-05 17:44 | 39.51395 | 2.64546 | 4085 ft | 202 kts | 240° |
| 2026-05-05 17:44 | 39.50593 | 2.62931 | 4523 ft | 219 kts | 239° |
| 2026-05-05 17:45 | 39.49706 | 2.61305 | 4916 ft | 223 kts | 229° |
| 2026-05-05 17:45 | 39.48378 | 2.60223 | 4990 ft | 231 kts | 210° |
| 2026-05-05 17:45 | 39.47009 | 2.59244 | 4980 ft | 221 kts | 214° |
| 2026-05-05 17:45 | 39.45677 | 2.58261 | 4986 ft | 220 kts | 213° |
| 2026-05-05 17:46 | 39.44341 | 2.57298 | 4975 ft | 219 kts | 213° |
| 2026-05-05 17:46 | 39.42934 | 2.56639 | 5205 ft | 217 kts | 187° |
| 2026-05-05 17:46 | 39.41380 | 2.56862 | 5700 ft | 238 kts | 161° |
| 2026-05-05 17:46 | 39.39998 | 2.58100 | 6359 ft | 248 kts | 142° |
| 2026-05-05 17:47 | 39.38720 | 2.59659 | 6937 ft | 254 kts | 139° |
| 2026-05-05 17:47 | 39.37471 | 2.61290 | 7472 ft | 256 kts | 139° |
| 2026-05-05 17:47 | 39.36205 | 2.62891 | 8015 ft | 257 kts | 140° |
| 2026-05-05 17:47 | 39.34894 | 2.64498 | 8545 ft | 258 kts | 141° |
| 2026-05-05 17:48 | 39.33587 | 2.66101 | 9096 ft | 260 kts | 141° |
| 2026-05-05 17:48 | 39.32276 | 2.67723 | 9629 ft | 261 kts | 141° |
| 2026-05-05 17:48 | 39.30978 | 2.69330 | 10136 ft | 262 kts | 142° |
| 2026-05-05 17:48 | 39.29651 | 2.70968 | 10624 ft | 264 kts | 142° |
| 2026-05-05 17:49 | 39.28334 | 2.72643 | 11123 ft | 269 kts | 136° |
| 2026-05-05 17:49 | 39.27486 | 2.74852 | 11578 ft | 283 kts | 108° |
| 2026-05-05 17:49 | 39.27352 | 2.77431 | 12087 ft | 291 kts | 93° |
| 2026-05-05 17:49 | 39.27360 | 2.80066 | 12574 ft | 297 kts | 93° |
| 2026-05-05 17:50 | 39.27365 | 2.82768 | 12865 ft | 298 kts | 94° |
| 2026-05-05 17:50 | 39.27363 | 2.85467 | 13316 ft | 313 kts | 94° |
| 2026-05-05 17:50 | 39.27356 | 2.88349 | 13814 ft | 329 kts | 94° |
| 2026-05-05 17:50 | 39.27547 | 2.91410 | 13990 ft | 358 kts | 73° |
| 2026-05-05 17:51 | 39.28668 | 2.94416 | 14284 ft | 379 kts | 59° |
| 2026-05-05 17:51 | 39.30043 | 2.97388 | 14800 ft | 391 kts | 58° |
| 2026-05-05 17:51 | 39.31447 | 3.00407 | 15323 ft | 402 kts | 59° |
| 2026-05-05 17:51 | 39.32868 | 3.03592 | 15845 ft | 413 kts | 60° |
| 2026-05-05 17:52 | 39.34313 | 3.06865 | 16399 ft | 422 kts | 59° |
| 2026-05-05 17:52 | 39.35778 | 3.10130 | 16923 ft | 426 kts | 59° |
| 2026-05-05 17:52 | 39.37281 | 3.13458 | 17480 ft | 430 kts | 59° |
| 2026-05-05 17:52 | 39.38792 | 3.16831 | 18017 ft | 434 kts | 59° |
| 2026-05-05 17:53 | 39.40312 | 3.20244 | 18525 ft | 438 kts | 59° |
| 2026-05-05 17:53 | 39.41815 | 3.23616 | 18988 ft | 441 kts | 59° |
| 2026-05-05 17:53 | 39.43367 | 3.27085 | 19486 ft | 445 kts | 59° |
| 2026-05-05 17:53 | 39.45006 | 3.30509 | 19925 ft | 448 kts | 51° |
| 2026-05-05 17:54 | 39.47165 | 3.33421 | 20002 ft | 452 kts | 36° |
| 2026-05-05 17:54 | 39.49738 | 3.35872 | 19992 ft | 465 kts | 31° |
| 2026-05-05 17:54 | 39.52485 | 3.38239 | 19992 ft | 483 kts | 31° |
| 2026-05-05 17:54 | 39.55269 | 3.40834 | 20181 ft | 497 kts | 36° |
| 2026-05-05 17:55 | 39.57962 | 3.43685 | 20704 ft | 500 kts | 37° |
| 2026-05-05 17:55 | 39.60655 | 3.46472 | 21230 ft | 501 kts | 34° |
| 2026-05-05 17:55 | 39.63463 | 3.49177 | 21754 ft | 502 kts | 33° |
| 2026-05-05 17:55 | 39.66249 | 3.51868 | 22277 ft | 504 kts | 34° |
| 2026-05-05 17:56 | 39.69028 | 3.54674 | 22812 ft | 506 kts | 35° |
| 2026-05-05 17:56 | 39.71812 | 3.57505 | 23367 ft | 507 kts | 34° |
| 2026-05-05 17:56 | 39.74618 | 3.60293 | 23838 ft | 508 kts | 34° |
| 2026-05-05 17:56 | 39.77436 | 3.63075 | 24283 ft | 508 kts | 34° |
| 2026-05-05 17:57 | 39.80223 | 3.65866 | 24752 ft | 509 kts | 34° |
| 2026-05-05 17:57 | 39.83000 | 3.68667 | 25220 ft | 509 kts | 34° |
| 2026-05-05 17:57 | 39.85824 | 3.71499 | 25691 ft | 509 kts | 34° |
| 2026-05-05 17:57 | 39.88606 | 3.74281 | 26166 ft | 508 kts | 34° |
| 2026-05-05 17:58 | 39.91414 | 3.77099 | 26649 ft | 508 kts | 34° |
| 2026-05-05 17:58 | 39.94215 | 3.79921 | 27164 ft | 507 kts | 34° |
| 2026-05-05 17:58 | 39.96595 | 3.82320 | 27586 ft | 507 kts | 34° |
| 2026-05-05 17:58 | 39.99391 | 3.85136 | 28093 ft | 506 kts | 34° |
| 2026-05-05 17:59 | 40.02179 | 3.87945 | 28614 ft | 505 kts | 34° |
| 2026-05-05 17:59 | 40.04962 | 3.90756 | 29137 ft | 504 kts | 35° |
| 2026-05-05 17:59 | 40.07705 | 3.93531 | 29644 ft | 503 kts | 34° |
| 2026-05-05 17:59 | 40.10448 | 3.96309 | 29881 ft | 493 kts | 34° |
| 2026-05-05 18:00 | 40.13170 | 3.99063 | 30108 ft | 496 kts | 34° |
| 2026-05-05 18:00 | 40.15924 | 4.01851 | 30336 ft | 501 kts | 34° |
| 2026-05-05 18:00 | 40.18661 | 4.04631 | 30564 ft | 505 kts | 35° |
| 2026-05-05 18:00 | 40.21446 | 4.07464 | 30804 ft | 509 kts | 35° |
| 2026-05-05 18:01 | 40.24256 | 4.10322 | 31047 ft | 512 kts | 35° |
| 2026-05-05 18:01 | 40.27062 | 4.13179 | 31302 ft | 515 kts | 35° |
| 2026-05-05 18:01 | 40.29911 | 4.16082 | 31562 ft | 518 kts | 35° |
| 2026-05-05 18:01 | 40.32750 | 4.18981 | 31810 ft | 520 kts | 35° |
| 2026-05-05 18:02 | 40.35587 | 4.21881 | 32050 ft | 523 kts | 35° |
| 2026-05-05 18:02 | 40.38457 | 4.24815 | 32320 ft | 525 kts | 35° |
| 2026-05-05 18:02 | 40.41369 | 4.27796 | 32594 ft | 527 kts | 35° |
| 2026-05-05 18:02 | 40.44236 | 4.30736 | 32849 ft | 528 kts | 36° |
| 2026-05-05 18:03 | 40.47161 | 4.33679 | 33121 ft | 528 kts | 30° |
| 2026-05-05 18:03 | 40.50330 | 4.35991 | 33453 ft | 520 kts | 17° |
| 2026-05-05 18:03 | 40.53724 | 4.37497 | 33797 ft | 511 kts | 6° |
| 2026-05-05 18:03 | 40.57200 | 4.38381 | 34071 ft | 508 kts | 4° |
| 2026-05-05 18:04 | 40.60692 | 4.39222 | 34366 ft | 508 kts | 4° |
| 2026-05-05 18:04 | 40.64177 | 4.40042 | 34659 ft | 510 kts | 4° |
| 2026-05-05 18:04 | 40.67690 | 4.40878 | 34943 ft | 513 kts | 4° |
| 2026-05-05 18:04 | 40.71164 | 4.41718 | 35214 ft | 514 kts | 4° |
| 2026-05-05 18:05 | 40.74682 | 4.42568 | 35502 ft | 516 kts | 4° |
| 2026-05-05 18:05 | 40.78228 | 4.43416 | 35756 ft | 518 kts | 4° |
| 2026-05-05 18:05 | 40.81802 | 4.44272 | 35953 ft | 521 kts | 4° |
| 2026-05-05 18:05 | 40.85389 | 4.45137 | 36128 ft | 525 kts | 4° |
| 2026-05-05 18:06 | 40.88993 | 4.46008 | 36297 ft | 528 kts | 4° |
| 2026-05-05 18:06 | 40.91389 | 4.46587 | 36405 ft | 530 kts | 4° |
| 2026-05-05 18:06 | 40.96230 | 4.47760 | 36641 ft | 533 kts | 4° |
| 2026-05-05 18:06 | 40.99901 | 4.48651 | 36811 ft | 536 kts | 4° |
| 2026-05-05 18:07 | 41.03596 | 4.49549 | 36978 ft | 538 kts | 4° |
| 2026-05-05 18:07 | 41.07247 | 4.50437 | 37142 ft | 540 kts | 4° |
| 2026-05-05 18:07 | 41.10957 | 4.51339 | 37318 ft | 541 kts | 4° |
| 2026-05-05 18:07 | 41.14687 | 4.52248 | 37493 ft | 543 kts | 4° |
| 2026-05-05 18:08 | 41.18367 | 4.53145 | 37664 ft | 544 kts | 4° |
| 2026-05-05 18:08 | 41.22115 | 4.54059 | 37836 ft | 545 kts | 4° |
| 2026-05-05 18:08 | 41.25858 | 4.54974 | 37985 ft | 547 kts | 4° |
| 2026-05-05 18:09 | 41.33345 | 4.56807 | 37981 ft | 549 kts | 5° |
| 2026-05-05 18:09 | 41.40817 | 4.58643 | 37981 ft | 545 kts | 4° |
| 2026-05-05 18:10 | 41.48271 | 4.60472 | 37983 ft | 545 kts | 4° |
| 2026-05-05 18:10 | 41.55712 | 4.62309 | 37985 ft | 544 kts | 4° |
| 2026-05-05 18:11 | 41.63144 | 4.64144 | 37987 ft | 543 kts | 4° |
| 2026-05-05 18:11 | 41.70582 | 4.66034 | 37991 ft | 546 kts | 9° |
| 2026-05-05 18:11 | 41.74172 | 4.67661 | 37990 ft | 555 kts | 20° |
| 2026-05-05 18:12 | 41.77614 | 4.70110 | 38000 ft | 560 kts | 27° |
| 2026-05-05 18:12 | 41.84297 | 4.75464 | 37986 ft | 563 kts | 27° |
| 2026-05-05 18:13 | 41.91079 | 4.80938 | 37991 ft | 570 kts | 27° |
| 2026-05-05 18:13 | 41.97856 | 4.86400 | 37987 ft | 571 kts | 27° |
| 2026-05-05 18:14 | 42.04641 | 4.91900 | 37986 ft | 566 kts | 27° |
| 2026-05-05 18:14 | 42.11382 | 4.97362 | 37987 ft | 566 kts | 27° |
| 2026-05-05 18:15 | 42.18141 | 5.02865 | 37988 ft | 566 kts | 27° |
| 2026-05-05 18:15 | 42.24885 | 5.08361 | 37990 ft | 566 kts | 28° |
| 2026-05-05 18:16 | 42.31626 | 5.13873 | 37984 ft | 566 kts | 28° |
| 2026-05-05 18:16 | 42.38345 | 5.19379 | 37983 ft | 567 kts | 28° |
| 2026-05-05 18:17 | 42.45072 | 5.24907 | 37989 ft | 567 kts | 28° |
| 2026-05-05 18:17 | 42.51801 | 5.30450 | 37994 ft | 566 kts | 28° |
| 2026-05-05 18:18 | 42.58531 | 5.36008 | 37975 ft | 565 kts | 28° |
| 2026-05-05 18:18 | 42.65246 | 5.41568 | 37948 ft | 566 kts | 28° |
| 2026-05-05 18:19 | 42.71962 | 5.47143 | 37985 ft | 565 kts | 28° |
| 2026-05-05 18:19 | 42.78002 | 5.52162 | 37990 ft | 568 kts | 28° |
| 2026-05-05 18:20 | 42.84737 | 5.57794 | 37994 ft | 564 kts | 28° |
| 2026-05-05 18:20 | 42.91435 | 5.63385 | 37995 ft | 564 kts | 28° |
| 2026-05-05 18:21 | 42.98110 | 5.68987 | 38006 ft | 564 kts | 28° |
| 2026-05-05 18:21 | 43.04778 | 5.74590 | 38012 ft | 563 kts | 29° |
| 2026-05-05 18:22 | 43.11472 | 5.80063 | 38028 ft | 559 kts | 21° |
| 2026-05-05 18:22 | 43.18821 | 5.83399 | 38030 ft | 552 kts | 9° |
| 2026-05-05 18:23 | 43.26250 | 5.85845 | 38023 ft | 553 kts | 12° |
| 2026-05-05 18:23 | 43.33594 | 5.89254 | 38017 ft | 555 kts | 14° |
| 2026-05-05 18:24 | 43.40935 | 5.92296 | 38014 ft | 552 kts | 11° |
| 2026-05-05 18:24 | 43.48338 | 5.95045 | 38009 ft | 551 kts | 12° |
| 2026-05-05 18:25 | 43.55720 | 5.98006 | 38017 ft | 551 kts | 12° |
| 2026-05-05 18:25 | 43.63008 | 6.00804 | 38011 ft | 551 kts | 12° |
| 2026-05-05 18:26 | 43.70348 | 6.03709 | 38004 ft | 550 kts | 12° |
| 2026-05-05 18:26 | 43.77711 | 6.06585 | 38016 ft | 550 kts | 12° |
| 2026-05-05 18:27 | 43.85052 | 6.09485 | 38006 ft | 551 kts | 12° |
| 2026-05-05 18:27 | 43.92438 | 6.12397 | 38011 ft | 551 kts | 12° |
| 2026-05-05 18:28 | 44.03482 | 6.16775 | 38016 ft | 551 kts | 12° |
| 2026-05-05 18:28 | 44.10842 | 6.19697 | 38020 ft | 551 kts | 12° |
| 2026-05-05 18:29 | 44.18258 | 6.22654 | 38008 ft | 551 kts | 12° |
| 2026-05-05 18:29 | 44.25618 | 6.25593 | 38014 ft | 553 kts | 12° |
| 2026-05-05 18:30 | 44.32993 | 6.28548 | 38010 ft | 551 kts | 13° |
| 2026-05-05 18:30 | 44.40362 | 6.31506 | 38022 ft | 552 kts | 13° |
| 2026-05-05 18:31 | 44.47683 | 6.34454 | 38029 ft | 553 kts | 13° |
| 2026-05-05 18:31 | 44.55084 | 6.37442 | 38001 ft | 551 kts | 13° |
| 2026-05-05 18:32 | 44.62393 | 6.40401 | 38005 ft | 549 kts | 13° |
| 2026-05-05 18:32 | 44.68547 | 6.42895 | 38010 ft | 552 kts | 13° |
| 2026-05-05 18:33 | 44.77123 | 6.46386 | 37996 ft | 551 kts | 13° |
| 2026-05-05 18:33 | 44.83263 | 6.48890 | 37994 ft | 550 kts | 13° |
| 2026-05-05 18:34 | 44.90582 | 6.51883 | 37989 ft | 549 kts | 13° |
| 2026-05-05 18:34 | 44.97901 | 6.54883 | 37989 ft | 548 kts | 13° |
| 2026-05-05 18:35 | 45.05242 | 6.57901 | 37982 ft | 548 kts | 13° |
| 2026-05-05 18:35 | 45.12552 | 6.60914 | 37996 ft | 548 kts | 13° |
| 2026-05-05 18:36 | 45.19868 | 6.63937 | 38000 ft | 547 kts | 14° |
| 2026-05-05 18:36 | 45.27180 | 6.66966 | 37997 ft | 549 kts | 14° |
| 2026-05-05 18:37 | 45.34498 | 6.70008 | 38005 ft | 549 kts | 14° |
| 2026-05-05 18:37 | 45.41850 | 6.73070 | 37997 ft | 549 kts | 13° |
| 2026-05-05 18:38 | 45.48881 | 6.77292 | 38021 ft | 553 kts | 28° |
| 2026-05-05 18:38 | 45.55554 | 6.82829 | 38006 ft | 553 kts | 29° |
| 2026-05-05 18:39 | 45.62188 | 6.88341 | 38004 ft | 553 kts | 29° |
| 2026-05-05 18:39 | 45.68849 | 6.93887 | 37927 ft | 555 kts | 29° |
| 2026-05-05 18:40 | 45.75460 | 6.99415 | 37933 ft | 552 kts | 29° |
| 2026-05-05 18:40 | 45.82124 | 7.04992 | 37939 ft | 552 kts | 29° |
| 2026-05-05 18:41 | 45.88732 | 7.10547 | 37940 ft | 553 kts | 29° |
| 2026-05-05 18:41 | 45.95379 | 7.16155 | 37939 ft | 553 kts | 30° |
| 2026-05-05 18:42 | 46.02006 | 7.21762 | 37919 ft | 552 kts | 30° |
| 2026-05-05 18:42 | 46.08651 | 7.27400 | 37915 ft | 552 kts | 30° |
| 2026-05-05 18:43 | 46.15251 | 7.33015 | 37917 ft | 552 kts | 30° |
| 2026-05-05 18:43 | 46.21762 | 7.38572 | 37918 ft | 552 kts | 30° |
| 2026-05-05 18:44 | 46.28350 | 7.44208 | 37922 ft | 551 kts | 30° |
| 2026-05-05 18:44 | 46.34965 | 7.49884 | 37928 ft | 550 kts | 30° |
| 2026-05-05 18:45 | 46.41501 | 7.55508 | 37927 ft | 549 kts | 30° |
| 2026-05-05 18:45 | 46.48084 | 7.61190 | 37930 ft | 549 kts | 30° |
| 2026-05-05 18:46 | 46.54621 | 7.66847 | 37926 ft | 547 kts | 30° |
| 2026-05-05 18:46 | 46.61135 | 7.72619 | 37936 ft | 547 kts | 32° |
| 2026-05-05 18:47 | 46.67646 | 7.78215 | 37933 ft | 546 kts | 25° |
| 2026-05-05 18:47 | 46.74567 | 7.82881 | 37927 ft | 546 kts | 24° |
| 2026-05-05 18:48 | 46.81283 | 7.87999 | 37921 ft | 546 kts | 26° |
| 2026-05-05 18:48 | 46.88114 | 7.92934 | 37929 ft | 546 kts | 25° |
| 2026-05-05 18:49 | 46.94903 | 7.97986 | 37923 ft | 546 kts | 26° |
| 2026-05-05 18:49 | 47.01657 | 8.02973 | 37924 ft | 546 kts | 25° |
| 2026-05-05 18:50 | 47.08453 | 8.08017 | 37923 ft | 545 kts | 26° |
| 2026-05-05 18:50 | 47.15149 | 8.13007 | 37921 ft | 544 kts | 26° |
| 2026-05-05 18:51 | 47.21923 | 8.18058 | 37922 ft | 544 kts | 26° |
| 2026-05-05 18:51 | 47.28694 | 8.23134 | 37919 ft | 545 kts | 26° |
| 2026-05-05 18:52 | 47.35424 | 8.28183 | 37898 ft | 546 kts | 26° |
| 2026-05-05 18:52 | 47.42221 | 8.33305 | 37898 ft | 546 kts | 26° |
| 2026-05-05 18:53 | 47.48937 | 8.38375 | 37893 ft | 545 kts | 26° |
| 2026-05-05 18:53 | 47.55702 | 8.43501 | 37894 ft | 545 kts | 26° |
| 2026-05-05 18:54 | 47.62459 | 8.48633 | 37896 ft | 545 kts | 26° |
| 2026-05-05 18:54 | 47.69173 | 8.53748 | 37894 ft | 544 kts | 26° |
| 2026-05-05 18:55 | 47.76224 | 8.57791 | 37889 ft | 542 kts | 17° |
| 2026-05-05 18:55 | 47.83316 | 8.61491 | 37891 ft | 542 kts | 21° |
| 2026-05-05 18:56 | 47.90357 | 8.65579 | 37885 ft | 541 kts | 19° |
| 2026-05-05 18:56 | 47.97415 | 8.69394 | 37863 ft | 541 kts | 20° |
| 2026-05-05 18:57 | 48.04422 | 8.73395 | 37878 ft | 541 kts | 20° |
| 2026-05-05 18:57 | 48.11457 | 8.77289 | 37859 ft | 541 kts | 20° |
| 2026-05-05 18:58 | 48.18499 | 8.81283 | 37861 ft | 541 kts | 20° |
| 2026-05-05 18:58 | 48.25577 | 8.85258 | 37856 ft | 541 kts | 20° |
| 2026-05-05 18:59 | 48.32549 | 8.89214 | 37861 ft | 541 kts | 20° |
| 2026-05-05 18:59 | 48.39604 | 8.93213 | 37849 ft | 541 kts | 20° |
| 2026-05-05 19:00 | 48.46680 | 8.97244 | 37843 ft | 541 kts | 20° |
| 2026-05-05 19:00 | 48.53722 | 9.01263 | 37836 ft | 541 kts | 20° |
| 2026-05-05 19:01 | 48.60735 | 9.05280 | 37830 ft | 541 kts | 20° |
| 2026-05-05 19:01 | 48.67756 | 9.09313 | 37825 ft | 541 kts | 20° |
| 2026-05-05 19:02 | 48.74792 | 9.13366 | 37831 ft | 540 kts | 20° |
| 2026-05-05 19:02 | 48.81837 | 9.17438 | 37834 ft | 539 kts | 20° |
| 2026-05-05 19:03 | 48.88831 | 9.21491 | 37827 ft | 539 kts | 21° |
| 2026-05-05 19:03 | 48.95811 | 9.25548 | 37832 ft | 538 kts | 21° |
| 2026-05-05 19:04 | 49.02822 | 9.29636 | 37838 ft | 538 kts | 21° |
| 2026-05-05 19:04 | 49.09791 | 9.33712 | 37824 ft | 538 kts | 21° |
| 2026-05-05 19:05 | 49.16806 | 9.37827 | 37846 ft | 539 kts | 21° |
| 2026-05-05 19:05 | 49.23771 | 9.41926 | 37836 ft | 539 kts | 21° |
| 2026-05-05 19:06 | 49.30780 | 9.46062 | 37837 ft | 538 kts | 21° |
| 2026-05-05 19:06 | 49.37732 | 9.50178 | 37836 ft | 538 kts | 21° |
| 2026-05-05 19:07 | 49.44752 | 9.54346 | 37832 ft | 539 kts | 21° |
| 2026-05-05 19:07 | 49.51708 | 9.58489 | 37834 ft | 538 kts | 21° |
| 2026-05-05 19:08 | 49.58697 | 9.62665 | 37835 ft | 538 kts | 21° |
| 2026-05-05 19:08 | 49.65703 | 9.66864 | 37832 ft | 538 kts | 21° |
| 2026-05-05 19:09 | 49.72656 | 9.71043 | 37828 ft | 537 kts | 21° |
| 2026-05-05 19:09 | 49.79629 | 9.75248 | 37824 ft | 537 kts | 21° |
| 2026-05-05 19:10 | 49.86570 | 9.79446 | 37820 ft | 536 kts | 21° |
| 2026-05-05 19:10 | 49.93534 | 9.83672 | 37815 ft | 536 kts | 21° |
| 2026-05-05 19:11 | 50.00456 | 9.87885 | 37809 ft | 536 kts | 21° |
| 2026-05-05 19:11 | 50.07381 | 9.92113 | 37814 ft | 535 kts | 21° |
| 2026-05-05 19:12 | 50.14333 | 9.96370 | 37500 ft | 538 kts | 22° |
| 2026-05-05 19:12 | 50.17809 | 9.98503 | 37179 ft | 533 kts | 22° |
| 2026-05-05 19:12 | 50.21246 | 10.00616 | 36866 ft | 530 kts | 22° |
| 2026-05-05 19:13 | 50.24673 | 10.02727 | 36539 ft | 527 kts | 22° |
| 2026-05-05 19:13 | 50.28083 | 10.04830 | 36218 ft | 524 kts | 22° |
| 2026-05-05 19:13 | 50.31475 | 10.06925 | 35905 ft | 523 kts | 22° |
| 2026-05-05 19:13 | 50.34804 | 10.08985 | 35817 ft | 519 kts | 23° |
| 2026-05-05 19:14 | 50.41584 | 10.13190 | 35822 ft | 527 kts | 22° |
| 2026-05-05 19:14 | 50.48450 | 10.17460 | 35815 ft | 529 kts | 22° |
| 2026-05-05 19:15 | 50.55271 | 10.21716 | 35812 ft | 530 kts | 22° |
| 2026-05-05 19:15 | 50.61979 | 10.26484 | 35828 ft | 527 kts | 35° |
| 2026-05-05 19:16 | 50.64883 | 10.30022 | 35829 ft | 525 kts | 46° |
| 2026-05-05 19:16 | 50.67296 | 10.34280 | 35831 ft | 521 kts | 57° |
| 2026-05-05 19:16 | 50.70915 | 10.44060 | 35811 ft | 519 kts | 64° |
| 2026-05-05 19:17 | 50.74349 | 10.54135 | 35815 ft | 520 kts | 64° |
| 2026-05-05 19:17 | 50.77781 | 10.64170 | 35813 ft | 520 kts | 64° |
| 2026-05-05 19:18 | 50.81210 | 10.74269 | 35816 ft | 520 kts | 65° |
| 2026-05-05 19:18 | 50.84631 | 10.84375 | 35813 ft | 520 kts | 65° |
| 2026-05-05 19:19 | 50.87479 | 10.92818 | 35809 ft | 522 kts | 65° |
| 2026-05-05 19:19 | 50.90881 | 11.02948 | 35818 ft | 523 kts | 65° |
| 2026-05-05 19:20 | 50.94282 | 11.13106 | 35809 ft | 523 kts | 65° |
| 2026-05-05 19:20 | 50.97913 | 11.23128 | 35838 ft | 527 kts | 56° |
| 2026-05-05 19:21 | 51.00097 | 11.27861 | 35327 ft | 533 kts | 56° |
| 2026-05-05 19:21 | 51.02292 | 11.32582 | 34775 ft | 527 kts | 56° |
| 2026-05-05 19:21 | 51.04473 | 11.37241 | 34163 ft | 521 kts | 56° |
| 2026-05-05 19:21 | 51.06592 | 11.41806 | 33531 ft | 515 kts | 57° |
| 2026-05-05 19:22 | 51.08708 | 11.46402 | 32845 ft | 513 kts | 57° |
| 2026-05-05 19:22 | 51.10823 | 11.50993 | 32184 ft | 512 kts | 56° |
| 2026-05-05 19:22 | 51.12909 | 11.55503 | 31551 ft | 509 kts | 56° |
| 2026-05-05 19:22 | 51.14998 | 11.60033 | 30905 ft | 506 kts | 56° |
| 2026-05-05 19:23 | 51.17076 | 11.64562 | 30299 ft | 502 kts | 56° |
| 2026-05-05 19:23 | 51.19130 | 11.69046 | 29665 ft | 500 kts | 56° |
| 2026-05-05 19:23 | 51.21210 | 11.73592 | 28977 ft | 517 kts | 56° |
| 2026-05-05 19:23 | 51.23354 | 11.78281 | 28303 ft | 520 kts | 56° |
| 2026-05-05 19:24 | 51.25447 | 11.82857 | 27665 ft | 514 kts | 56° |
| 2026-05-05 19:24 | 51.27551 | 11.87477 | 27014 ft | 510 kts | 56° |
| 2026-05-05 19:24 | 51.29617 | 11.92027 | 26375 ft | 505 kts | 56° |
| 2026-05-05 19:24 | 51.31704 | 11.96630 | 25645 ft | 520 kts | 55° |
| 2026-05-05 19:25 | 51.33851 | 12.01366 | 24917 ft | 521 kts | 55° |
| 2026-05-05 19:25 | 51.35941 | 12.05980 | 24230 ft | 516 kts | 55° |
| 2026-05-05 19:25 | 51.38027 | 12.10600 | 23539 ft | 503 kts | 55° |
| 2026-05-05 19:25 | 51.40048 | 12.15089 | 23012 ft | 487 kts | 55° |
| 2026-05-05 19:26 | 51.41986 | 12.19398 | 22527 ft | 472 kts | 55° |
| 2026-05-05 19:26 | 51.43866 | 12.23581 | 22245 ft | 452 kts | 56° |
| 2026-05-05 19:26 | 51.45670 | 12.27604 | 21955 ft | 435 kts | 56° |
| 2026-05-05 19:26 | 51.47405 | 12.31480 | 21666 ft | 420 kts | 56° |
| 2026-05-05 19:27 | 51.49086 | 12.35242 | 21375 ft | 406 kts | 56° |
| 2026-05-05 19:27 | 51.50711 | 12.38882 | 21084 ft | 394 kts | 56° |
| 2026-05-05 19:27 | 51.52262 | 12.42360 | 20810 ft | 385 kts | 56° |
| 2026-05-05 19:27 | 51.53806 | 12.45830 | 20793 ft | 379 kts | 56° |
| 2026-05-05 19:28 | 51.55359 | 12.49326 | 20795 ft | 387 kts | 56° |
| 2026-05-05 19:28 | 51.56949 | 12.52908 | 20419 ft | 394 kts | 56° |
| 2026-05-05 19:28 | 51.58516 | 12.56438 | 19985 ft | 390 kts | 56° |
| 2026-05-05 19:28 | 51.60078 | 12.59962 | 19539 ft | 383 kts | 56° |
| 2026-05-05 19:29 | 51.61621 | 12.63452 | 19092 ft | 378 kts | 56° |
| 2026-05-05 19:29 | 51.63130 | 12.66872 | 18668 ft | 374 kts | 56° |
| 2026-05-05 19:29 | 51.64616 | 12.70241 | 18242 ft | 371 kts | 56° |
| 2026-05-05 19:29 | 51.66107 | 12.73626 | 17765 ft | 368 kts | 56° |
| 2026-05-05 19:30 | 51.67588 | 12.76995 | 17287 ft | 365 kts | 56° |
| 2026-05-05 19:30 | 51.69049 | 12.80319 | 16823 ft | 363 kts | 56° |
| 2026-05-05 19:30 | 51.70507 | 12.83643 | 16353 ft | 360 kts | 56° |
| 2026-05-05 19:30 | 51.71930 | 12.86890 | 15900 ft | 358 kts | 56° |
| 2026-05-05 19:31 | 51.73367 | 12.90174 | 15458 ft | 355 kts | 56° |
| 2026-05-05 19:31 | 51.74790 | 12.93430 | 15006 ft | 352 kts | 56° |
| 2026-05-05 19:31 | 51.76185 | 12.96624 | 14572 ft | 350 kts | 56° |
| 2026-05-05 19:31 | 51.77589 | 12.99845 | 14137 ft | 348 kts | 56° |
| 2026-05-05 19:32 | 51.78980 | 13.03041 | 13718 ft | 345 kts | 56° |
| 2026-05-05 19:32 | 51.80338 | 13.06164 | 13260 ft | 343 kts | 56° |
| 2026-05-05 19:32 | 51.81699 | 13.09295 | 12777 ft | 336 kts | 56° |
| 2026-05-05 19:32 | 51.83032 | 13.12367 | 12297 ft | 329 kts | 56° |
| 2026-05-05 19:33 | 51.84337 | 13.15380 | 11840 ft | 323 kts | 56° |
| 2026-05-05 19:33 | 51.85610 | 13.18320 | 11376 ft | 316 kts | 56° |
| 2026-05-05 19:33 | 51.86847 | 13.21182 | 10930 ft | 311 kts | 56° |
| 2026-05-05 19:33 | 51.88079 | 13.24033 | 10487 ft | 305 kts | 56° |
| 2026-05-05 19:34 | 51.89277 | 13.26812 | 10037 ft | 301 kts | 56° |
| 2026-05-05 19:34 | 51.90460 | 13.29557 | 9799 ft | 292 kts | 56° |
| 2026-05-05 19:34 | 51.91624 | 13.32259 | 9800 ft | 294 kts | 56° |
| 2026-05-05 19:35 | 51.93985 | 13.37753 | 9805 ft | 297 kts | 56° |
| 2026-05-05 19:35 | 51.95158 | 13.40485 | 9805 ft | 298 kts | 56° |
| 2026-05-05 19:35 | 51.96342 | 13.43250 | 9799 ft | 298 kts | 56° |
| 2026-05-05 19:35 | 51.97541 | 13.46050 | 9414 ft | 300 kts | 56° |
| 2026-05-05 19:36 | 51.98768 | 13.48747 | 9016 ft | 294 kts | 47° |
| 2026-05-05 19:36 | 52.00423 | 13.50538 | 8623 ft | 288 kts | 20° |
| 2026-05-05 19:36 | 52.02355 | 13.51044 | 8237 ft | 279 kts | 355° |
| 2026-05-05 19:36 | 52.04195 | 13.50244 | 7865 ft | 270 kts | 331° |
| 2026-05-05 19:37 | 52.05641 | 13.48378 | 7496 ft | 262 kts | 308° |
| 2026-05-05 19:37 | 52.06715 | 13.46109 | 7179 ft | 251 kts | 306° |
| 2026-05-05 19:37 | 52.07759 | 13.43860 | 6882 ft | 248 kts | 306° |
| 2026-05-05 19:37 | 52.08788 | 13.41632 | 6544 ft | 245 kts | 306° |
| 2026-05-05 19:38 | 52.09822 | 13.39403 | 6202 ft | 245 kts | 306° |
| 2026-05-05 19:38 | 52.10834 | 13.37224 | 5840 ft | 243 kts | 307° |
| 2026-05-05 19:38 | 52.11856 | 13.35020 | 5458 ft | 243 kts | 307° |
| 2026-05-05 19:38 | 52.12873 | 13.32822 | 5089 ft | 242 kts | 307° |
| 2026-05-05 19:39 | 52.13886 | 13.30636 | 4730 ft | 241 kts | 307° |
| 2026-05-05 19:39 | 52.14896 | 13.28451 | 4361 ft | 240 kts | 308° |
| 2026-05-05 19:39 | 52.15895 | 13.26268 | 3978 ft | 240 kts | 307° |
| 2026-05-05 19:39 | 52.16862 | 13.24087 | 3601 ft | 238 kts | 307° |
| 2026-05-05 19:40 | 52.17826 | 13.21882 | 3229 ft | 236 kts | 307° |
| 2026-05-05 19:40 | 52.18764 | 13.19733 | 2974 ft | 228 kts | 307° |
| 2026-05-05 19:40 | 52.19646 | 13.17701 | 2979 ft | 217 kts | 307° |
| 2026-05-05 19:40 | 52.20747 | 13.16088 | 2946 ft | 211 kts | 336° |
| 2026-05-05 19:41 | 52.22130 | 13.15312 | 2979 ft | 210 kts | 345° |
| 2026-05-05 19:41 | 52.23478 | 13.14626 | 2972 ft | 201 kts | 345° |
| 2026-05-05 19:41 | 52.24822 | 13.14058 | 2952 ft | 197 kts | 358° |
| 2026-05-05 19:41 | 52.26091 | 13.14757 | 2965 ft | 193 kts | 32° |
| 2026-05-05 19:42 | 52.27130 | 13.16072 | 2947 ft | 187 kts | 52° |
| 2026-05-05 19:42 | 52.27606 | 13.17985 | 2974 ft | 178 kts | 70° |
| 2026-05-05 19:42 | 52.28100 | 13.19833 | 2975 ft | 177 kts | 68° |
| 2026-05-05 19:42 | 52.28561 | 13.21718 | 2981 ft | 178 kts | 69° |
| 2026-05-05 19:43 | 52.29009 | 13.23602 | 2992 ft | 181 kts | 69° |
| 2026-05-05 19:43 | 52.29464 | 13.25520 | 2925 ft | 182 kts | 69° |
| 2026-05-05 19:43 | 52.29900 | 13.27356 | 2695 ft | 162 kts | 69° |
| 2026-05-05 19:43 | 52.30282 | 13.28957 | 2480 ft | 141 kts | 69° |
| 2026-05-05 19:44 | 52.30630 | 13.30427 | 2304 ft | 138 kts | 69° |
| 2026-05-05 19:44 | 52.30974 | 13.31871 | 2120 ft | 135 kts | 69° |
| 2026-05-05 19:44 | 52.31315 | 13.33308 | 1933 ft | 136 kts | 69° |
| 2026-05-05 19:44 | 52.31660 | 13.34729 | 1765 ft | 132 kts | 67° |
| 2026-05-05 19:45 | 52.31989 | 13.36105 | 1590 ft | 131 kts | 68° |
| 2026-05-05 19:45 | 52.32322 | 13.37502 | 1409 ft | 133 kts | 69° |
| 2026-05-05 19:45 | 52.32656 | 13.38917 | 1228 ft | 134 kts | 68° |
| 2026-05-05 19:45 | 52.32995 | 13.40344 | 1040 ft | 135 kts | 68° |
| 2026-05-05 19:46 | 52.33333 | 13.41770 | 840 ft | 133 kts | 68° |
| 2026-05-05 19:46 | 52.33662 | 13.43163 | 681 ft | 134 kts | 67° |
| 2026-05-05 19:46 | 52.33991 | 13.44565 | 482 ft | 129 kts | 66° |
| 2026-05-05 19:46 | 52.34320 | 13.45925 | 352 ft | 129 kts | 67° |
| 2026-05-05 19:47 | 52.34646 | 13.47300 | 179 ft | 121 kts | 66° |
| 2026-05-05 19:47 | 52.34898 | 13.48331 | 170 ft | 72 kts | 69° |
| 2026-05-05 19:47 | 52.35041 | 13.48932 | 163 ft | 51 kts | 68° |
| 2026-05-05 19:47 | 52.35194 | 13.49318 | 167 ft | 34 kts | 37° |
| 2026-05-05 19:48 | 52.35352 | 13.49515 | 165 ft | 19 kts | 38° |
| 2026-05-05 19:48 | 52.35373 | 13.49541 | 165 ft | 2 kts | 38° |
| 2026-05-05 19:48 | 52.35395 | 13.49570 | 165 ft | 7 kts | 38° |
| 2026-05-05 19:48 | 52.35447 | 13.49654 | 162 ft | 13 kts | 57° |
| 2026-05-05 19:49 | 52.35494 | 13.49849 | 161 ft | 24 kts | 69° |
| 2026-05-05 19:49 | 52.35542 | 13.50050 | 161 ft | 32 kts | 69° |
| 2026-05-05 19:49 | 52.35644 | 13.50478 | 162 ft | 29 kts | 68° |
| 2026-05-05 19:49 | 52.35691 | 13.50676 | 162 ft | 14 kts | 69° |
| 2026-05-05 19:50 | 52.35719 | 13.50802 | 162 ft | 7 kts | 70° |
| 2026-05-05 19:50 | 52.35742 | 13.50830 | 162 ft | 4 kts | 14° |
| 2026-05-05 19:50 | 52.35776 | 13.50821 | 161 ft | 7 kts | 345° |
| 2026-05-05 19:50 | 52.35804 | 13.50807 | 160 ft | 1 kts | 340° |
| 2026-05-05 19:51 | 52.35814 | 13.50801 | 160 ft | 0 kts | 339° |
| 2026-05-05 19:51 | 52.35818 | 13.50799 | 160 ft | 2 kts | 339° |
| 2026-05-05 19:51 | 52.35845 | 13.50782 | 160 ft | 6 kts | 339° |
| 2026-05-05 19:52 | 52.35895 | 13.50750 | 161 ft | 9 kts | 338° |
| 2026-05-05 19:52 | 52.35967 | 13.50703 | 160 ft | 13 kts | 338° |
| 2026-05-05 19:52 | 52.36068 | 13.50640 | 160 ft | 17 kts | 340° |
| 2026-05-05 19:52 | 52.36181 | 13.50590 | 160 ft | 16 kts | 2° |
| 2026-05-05 19:53 | 52.36225 | 13.50625 | 160 ft | 1 kts | 68° |
| 2026-05-05 19:53 | 52.36226 | 13.50640 | 160 ft | 3 kts | 83° |
| 2026-05-05 19:53 | 52.36226 | 13.50662 | 161 ft | 3 kts | 86° |
| 2026-05-05 19:53 | 52.36232 | 13.50693 | 161 ft | 4 kts | 71° |
| 2026-05-05 19:54 | 52.36232 | 13.50697 | 161 ft | 0 kts | 71° |